sensor_id;sensor_type;location;lat;lon;timestamp;P1;durP1;ratioP1;P2;durP2;ratioP2
54328;SDS011;40710;51.120;13.136;2023-02-15T00:01:19;39.84;;;37.75;;
54328;SDS011;40710;51.120;13.136;2023-02-15T00:03:43;40.45;;;38.88;;
54328;SDS011;40710;51.120;13.136;2023-02-15T00:06:08;38.91;;;37.53;;
54328;SDS011;40710;51.120;13.136;2023-02-15T00:08:33;39.40;;;37.70;;
54328;SDS011;40710;51.120;13.136;2023-02-15T00:11:10;39.23;;;37.55;;
54328;SDS011;40710;51.120;13.136;2023-02-15T00:13:37;39.10;;;37.65;;
54328;SDS011;40710;51.120;13.136;2023-02-15T00:16:06;39.73;;;38.06;;
54328;SDS011;40710;51.120;13.136;2023-02-15T00:18:32;40.47;;;38.72;;
54328;SDS011;40710;51.120;13.136;2023-02-15T00:20:57;40.07;;;38.32;;
54328;SDS011;40710;51.120;13.136;2023-02-15T00:23:22;38.54;;;36.86;;
54328;SDS011;40710;51.120;13.136;2023-02-15T00:25:47;38.73;;;37.13;;
54328;SDS011;40710;51.120;13.136;2023-02-15T00:28:12;40.04;;;38.39;;
54328;SDS011;40710;51.120;13.136;2023-02-15T00:30:36;39.12;;;37.74;;
54328;SDS011;40710;51.120;13.136;2023-02-15T00:33:01;38.19;;;36.71;;
54328;SDS011;40710;51.120;13.136;2023-02-15T00:35:25;37.64;;;36.16;;
54328;SDS011;40710;51.120;13.136;2023-02-15T00:37:50;38.59;;;36.88;;
54328;SDS011;40710;51.120;13.136;2023-02-15T00:40:16;37.44;;;36.03;;
54328;SDS011;40710;51.120;13.136;2023-02-15T00:42:41;38.65;;;37.39;;
54328;SDS011;40710;51.120;13.136;2023-02-15T00:45:05;38.51;;;36.96;;
54328;SDS011;40710;51.120;13.136;2023-02-15T00:47:30;37.39;;;36.05;;
54328;SDS011;40710;51.120;13.136;2023-02-15T00:49:54;37.17;;;35.79;;
54328;SDS011;40710;51.120;13.136;2023-02-15T00:52:19;37.53;;;35.96;;
54328;SDS011;40710;51.120;13.136;2023-02-15T00:54:43;36.99;;;35.58;;
54328;SDS011;40710;51.120;13.136;2023-02-15T00:57:08;37.48;;;36.04;;
54328;SDS011;40710;51.120;13.136;2023-02-15T00:59:33;36.61;;;35.31;;
54328;SDS011;40710;51.120;13.136;2023-02-15T01:01:57;36.46;;;34.95;;
54328;SDS011;40710;51.120;13.136;2023-02-15T01:04:22;36.62;;;35.13;;
54328;SDS011;40710;51.120;13.136;2023-02-15T01:06:46;35.56;;;34.18;;
54328;SDS011;40710;51.120;13.136;2023-02-15T01:09:11;35.72;;;34.18;;
54328;SDS011;40710;51.120;13.136;2023-02-15T01:11:37;35.79;;;34.56;;
54328;SDS011;40710;51.120;13.136;2023-02-15T01:14:02;36.07;;;34.63;;
54328;SDS011;40710;51.120;13.136;2023-02-15T01:16:27;35.85;;;34.37;;
54328;SDS011;40710;51.120;13.136;2023-02-15T01:18:52;34.71;;;33.55;;
54328;SDS011;40710;51.120;13.136;2023-02-15T01:21:19;35.77;;;34.70;;
54328;SDS011;40710;51.120;13.136;2023-02-15T01:23:45;36.38;;;34.81;;
54328;SDS011;40710;51.120;13.136;2023-02-15T01:26:10;36.11;;;34.40;;
54328;SDS011;40710;51.120;13.136;2023-02-15T01:28:35;35.61;;;34.21;;
54328;SDS011;40710;51.120;13.136;2023-02-15T01:31:04;36.12;;;34.58;;
54328;SDS011;40710;51.120;13.136;2023-02-15T01:33:29;34.13;;;33.01;;
54328;SDS011;40710;51.120;13.136;2023-02-15T01:35:57;33.92;;;32.87;;
54328;SDS011;40710;51.120;13.136;2023-02-15T01:38:23;34.53;;;32.98;;
54328;SDS011;40710;51.120;13.136;2023-02-15T01:40:50;33.65;;;32.61;;
54328;SDS011;40710;51.120;13.136;2023-02-15T01:43:15;33.48;;;32.43;;
54328;SDS011;40710;51.120;13.136;2023-02-15T01:45:40;33.40;;;32.23;;
54328;SDS011;40710;51.120;13.136;2023-02-15T01:48:20;32.79;;;31.63;;
54328;SDS011;40710;51.120;13.136;2023-02-15T01:50:54;31.66;;;30.86;;
54328;SDS011;40710;51.120;13.136;2023-02-15T01:53:38;31.98;;;30.80;;
54328;SDS011;40710;51.120;13.136;2023-02-15T01:56:13;31.71;;;30.42;;
54328;SDS011;40710;51.120;13.136;2023-02-15T01:58:47;31.31;;;30.10;;
54328;SDS011;40710;51.120;13.136;2023-02-15T02:01:15;31.37;;;30.48;;
54328;SDS011;40710;51.120;13.136;2023-02-15T02:04:00;30.72;;;29.68;;
54328;SDS011;40710;51.120;13.136;2023-02-15T02:06:27;29.61;;;28.56;;
54328;SDS011;40710;51.120;13.136;2023-02-15T02:08:52;29.34;;;28.28;;
54328;SDS011;40710;51.120;13.136;2023-02-15T02:11:20;29.51;;;28.59;;
54328;SDS011;40710;51.120;13.136;2023-02-15T02:13:46;29.27;;;28.21;;
54328;SDS011;40710;51.120;13.136;2023-02-15T02:19:05;27.80;;;27.03;;
54328;SDS011;40710;51.120;13.136;2023-02-15T02:21:48;27.39;;;26.53;;
54328;SDS011;40710;51.120;13.136;2023-02-15T02:27:39;26.32;;;25.69;;
54328;SDS011;40710;51.120;13.136;2023-02-15T02:30:23;26.67;;;25.98;;
54328;SDS011;40710;51.120;13.136;2023-02-15T02:33:14;25.17;;;24.58;;
54328;SDS011;40710;51.120;13.136;2023-02-15T02:39:13;24.99;;;24.15;;
54328;SDS011;40710;51.120;13.136;2023-02-15T02:44:42;24.95;;;24.24;;
54328;SDS011;40710;51.120;13.136;2023-02-15T02:47:30;24.52;;;23.88;;
54328;SDS011;40710;51.120;13.136;2023-02-15T02:50:04;23.54;;;22.76;;
54328;SDS011;40710;51.120;13.136;2023-02-15T02:53:04;24.57;;;23.70;;
54328;SDS011;40710;51.120;13.136;2023-02-15T02:55:26;24.12;;;23.36;;
54328;SDS011;40710;51.120;13.136;2023-02-15T03:00:36;23.80;;;22.98;;
54328;SDS011;40710;51.120;13.136;2023-02-15T03:03:10;23.61;;;22.97;;
54328;SDS011;40710;51.120;13.136;2023-02-15T03:06:11;22.59;;;21.86;;
54328;SDS011;40710;51.120;13.136;2023-02-15T03:08:42;24.15;;;23.47;;
54328;SDS011;40710;51.120;13.136;2023-02-15T03:11:15;23.21;;;22.48;;
54328;SDS011;40710;51.120;13.136;2023-02-15T03:13:40;22.83;;;22.09;;
54328;SDS011;40710;51.120;13.136;2023-02-15T03:16:06;22.64;;;21.87;;
54328;SDS011;40710;51.120;13.136;2023-02-15T03:18:54;22.21;;;21.73;;
54328;SDS011;40710;51.120;13.136;2023-02-15T03:21:31;22.78;;;22.27;;
54328;SDS011;40710;51.120;13.136;2023-02-15T03:24:03;23.59;;;23.05;;
54328;SDS011;40710;51.120;13.136;2023-02-15T03:26:34;25.16;;;24.35;;
54328;SDS011;40710;51.120;13.136;2023-02-15T03:29:03;24.63;;;23.79;;
54328;SDS011;40710;51.120;13.136;2023-02-15T03:31:32;25.00;;;24.12;;
54328;SDS011;40710;51.120;13.136;2023-02-15T03:34:04;25.48;;;24.41;;
54328;SDS011;40710;51.120;13.136;2023-02-15T03:36:44;25.84;;;24.76;;
54328;SDS011;40710;51.120;13.136;2023-02-15T03:39:22;25.42;;;24.59;;
54328;SDS011;40710;51.120;13.136;2023-02-15T03:42:01;25.39;;;24.65;;
54328;SDS011;40710;51.120;13.136;2023-02-15T03:44:37;26.06;;;24.89;;
54328;SDS011;40710;51.120;13.136;2023-02-15T03:47:15;25.71;;;25.00;;
54328;SDS011;40710;51.120;13.136;2023-02-15T03:50:11;25.43;;;24.75;;
54328;SDS011;40710;51.120;13.136;2023-02-15T03:53:07;23.77;;;22.94;;
54328;SDS011;40710;51.120;13.136;2023-02-15T03:55:37;25.35;;;24.60;;
54328;SDS011;40710;51.120;13.136;2023-02-15T03:58:02;25.35;;;24.56;;
54328;SDS011;40710;51.120;13.136;2023-02-15T04:00:55;23.25;;;22.64;;
54328;SDS011;40710;51.120;13.136;2023-02-15T04:03:43;23.89;;;23.24;;
54328;SDS011;40710;51.120;13.136;2023-02-15T04:06:15;24.55;;;23.92;;
54328;SDS011;40710;51.120;13.136;2023-02-15T04:08:40;25.64;;;24.81;;
54328;SDS011;40710;51.120;13.136;2023-02-15T04:11:23;23.98;;;23.28;;
54328;SDS011;40710;51.120;13.136;2023-02-15T04:13:47;23.31;;;22.66;;
54328;SDS011;40710;51.120;13.136;2023-02-15T04:16:20;23.15;;;22.31;;
54328;SDS011;40710;51.120;13.136;2023-02-15T04:18:45;24.29;;;23.49;;
54328;SDS011;40710;51.120;13.136;2023-02-15T04:21:29;24.41;;;23.57;;
54328;SDS011;40710;51.120;13.136;2023-02-15T04:24:13;24.32;;;23.65;;
54328;SDS011;40710;51.120;13.136;2023-02-15T04:26:59;24.13;;;23.44;;
54328;SDS011;40710;51.120;13.136;2023-02-15T04:29:24;23.29;;;22.43;;
54328;SDS011;40710;51.120;13.136;2023-02-15T04:31:51;22.43;;;21.72;;
54328;SDS011;40710;51.120;13.136;2023-02-15T04:34:16;23.24;;;22.41;;
54328;SDS011;40710;51.120;13.136;2023-02-15T04:36:41;22.74;;;22.03;;
54328;SDS011;40710;51.120;13.136;2023-02-15T04:39:06;23.61;;;22.75;;
54328;SDS011;40710;51.120;13.136;2023-02-15T04:41:31;24.60;;;23.78;;
54328;SDS011;40710;51.120;13.136;2023-02-15T04:43:56;23.78;;;23.00;;
54328;SDS011;40710;51.120;13.136;2023-02-15T04:46:21;22.18;;;21.78;;
54328;SDS011;40710;51.120;13.136;2023-02-15T04:48:46;22.60;;;21.97;;
54328;SDS011;40710;51.120;13.136;2023-02-15T04:51:11;22.59;;;21.96;;
54328;SDS011;40710;51.120;13.136;2023-02-15T04:53:35;23.13;;;22.41;;
54328;SDS011;40710;51.120;13.136;2023-02-15T04:56:00;22.75;;;22.23;;
54328;SDS011;40710;51.120;13.136;2023-02-15T04:58:24;23.31;;;22.57;;
54328;SDS011;40710;51.120;13.136;2023-02-15T05:00:49;23.27;;;22.29;;
54328;SDS011;40710;51.120;13.136;2023-02-15T05:03:13;23.60;;;22.77;;
54328;SDS011;40710;51.120;13.136;2023-02-15T05:05:38;22.19;;;21.63;;
54328;SDS011;40710;51.120;13.136;2023-02-15T05:08:02;22.12;;;21.42;;
54328;SDS011;40710;51.120;13.136;2023-02-15T05:10:27;22.89;;;22.32;;
54328;SDS011;40710;51.120;13.136;2023-02-15T05:12:51;24.19;;;23.40;;
54328;SDS011;40710;51.120;13.136;2023-02-15T05:15:16;25.19;;;24.41;;
54328;SDS011;40710;51.120;13.136;2023-02-15T05:17:40;25.30;;;24.42;;
54328;SDS011;40710;51.120;13.136;2023-02-15T05:20:05;25.19;;;24.43;;
54328;SDS011;40710;51.120;13.136;2023-02-15T05:22:30;25.41;;;24.53;;
54328;SDS011;40710;51.120;13.136;2023-02-15T05:24:55;25.83;;;25.08;;
54328;SDS011;40710;51.120;13.136;2023-02-15T05:27:38;27.53;;;26.88;;
54328;SDS011;40710;51.120;13.136;2023-02-15T05:30:21;25.66;;;24.82;;
54328;SDS011;40710;51.120;13.136;2023-02-15T05:32:46;25.50;;;24.55;;
54328;SDS011;40710;51.120;13.136;2023-02-15T05:35:12;24.61;;;24.04;;
54328;SDS011;40710;51.120;13.136;2023-02-15T05:37:39;25.49;;;24.69;;
54328;SDS011;40710;51.120;13.136;2023-02-15T05:40:04;24.75;;;24.10;;
54328;SDS011;40710;51.120;13.136;2023-02-15T05:42:28;24.60;;;23.83;;
54328;SDS011;40710;51.120;13.136;2023-02-15T05:44:53;24.99;;;24.09;;
54328;SDS011;40710;51.120;13.136;2023-02-15T05:47:18;24.18;;;23.74;;
54328;SDS011;40710;51.120;13.136;2023-02-15T05:49:42;23.05;;;22.46;;
54328;SDS011;40710;51.120;13.136;2023-02-15T05:52:07;23.10;;;22.47;;
54328;SDS011;40710;51.120;13.136;2023-02-15T05:54:32;24.21;;;23.35;;
54328;SDS011;40710;51.120;13.136;2023-02-15T05:56:56;24.38;;;23.54;;
54328;SDS011;40710;51.120;13.136;2023-02-15T05:59:21;24.75;;;23.93;;
54328;SDS011;40710;51.120;13.136;2023-02-15T06:01:46;24.24;;;23.63;;
54328;SDS011;40710;51.120;13.136;2023-02-15T06:04:10;22.35;;;21.80;;
54328;SDS011;40710;51.120;13.136;2023-02-15T06:06:35;21.78;;;21.36;;
54328;SDS011;40710;51.120;13.136;2023-02-15T06:09:00;21.90;;;21.21;;
54328;SDS011;40710;51.120;13.136;2023-02-15T06:11:24;22.28;;;21.54;;
54328;SDS011;40710;51.120;13.136;2023-02-15T06:13:49;21.34;;;20.73;;
54328;SDS011;40710;51.120;13.136;2023-02-15T06:16:13;21.52;;;20.88;;
54328;SDS011;40710;51.120;13.136;2023-02-15T06:18:39;21.24;;;20.65;;
54328;SDS011;40710;51.120;13.136;2023-02-15T06:21:04;21.80;;;21.11;;
54328;SDS011;40710;51.120;13.136;2023-02-15T06:23:28;21.05;;;20.51;;
54328;SDS011;40710;51.120;13.136;2023-02-15T06:25:53;20.26;;;19.75;;
54328;SDS011;40710;51.120;13.136;2023-02-15T06:28:17;20.89;;;20.29;;
54328;SDS011;40710;51.120;13.136;2023-02-15T06:30:42;20.13;;;19.70;;
54328;SDS011;40710;51.120;13.136;2023-02-15T06:33:06;20.43;;;19.95;;
54328;SDS011;40710;51.120;13.136;2023-02-15T06:35:31;19.96;;;19.46;;
54328;SDS011;40710;51.120;13.136;2023-02-15T06:37:55;19.56;;;19.08;;
54328;SDS011;40710;51.120;13.136;2023-02-15T06:40:20;19.93;;;19.50;;
54328;SDS011;40710;51.120;13.136;2023-02-15T06:42:45;19.29;;;18.72;;
54328;SDS011;40710;51.120;13.136;2023-02-15T06:45:10;19.47;;;18.80;;
54328;SDS011;40710;51.120;13.136;2023-02-15T06:47:35;18.44;;;17.94;;
54328;SDS011;40710;51.120;13.136;2023-02-15T06:50:00;18.69;;;17.95;;
54328;SDS011;40710;51.120;13.136;2023-02-15T06:52:25;19.32;;;18.64;;
54328;SDS011;40710;51.120;13.136;2023-02-15T06:54:50;18.90;;;18.35;;
54328;SDS011;40710;51.120;13.136;2023-02-15T06:57:15;20.12;;;19.69;;
54328;SDS011;40710;51.120;13.136;2023-02-15T06:59:39;19.05;;;18.51;;
54328;SDS011;40710;51.120;13.136;2023-02-15T07:02:04;18.28;;;17.81;;
54328;SDS011;40710;51.120;13.136;2023-02-15T07:04:28;18.63;;;18.22;;
54328;SDS011;40710;51.120;13.136;2023-02-15T07:06:54;18.61;;;17.97;;
54328;SDS011;40710;51.120;13.136;2023-02-15T07:09:18;18.14;;;17.51;;
54328;SDS011;40710;51.120;13.136;2023-02-15T07:11:43;17.46;;;16.97;;
54328;SDS011;40710;51.120;13.136;2023-02-15T07:14:25;17.44;;;17.08;;
54328;SDS011;40710;51.120;13.136;2023-02-15T07:16:50;17.16;;;16.88;;
54328;SDS011;40710;51.120;13.136;2023-02-15T07:19:15;15.75;;;15.41;;
54328;SDS011;40710;51.120;13.136;2023-02-15T07:21:39;15.27;;;14.87;;
54328;SDS011;40710;51.120;13.136;2023-02-15T07:24:04;14.49;;;14.17;;
54328;SDS011;40710;51.120;13.136;2023-02-15T07:26:28;14.79;;;14.40;;
54328;SDS011;40710;51.120;13.136;2023-02-15T07:28:55;14.36;;;14.03;;
54328;SDS011;40710;51.120;13.136;2023-02-15T07:31:20;13.88;;;13.44;;
54328;SDS011;40710;51.120;13.136;2023-02-15T07:33:44;13.97;;;13.44;;
54328;SDS011;40710;51.120;13.136;2023-02-15T07:36:09;22.31;;;21.42;;
54328;SDS011;40710;51.120;13.136;2023-02-15T07:38:36;14.96;;;14.50;;
54328;SDS011;40710;51.120;13.136;2023-02-15T07:41:04;14.19;;;13.86;;
54328;SDS011;40710;51.120;13.136;2023-02-15T07:43:32;14.28;;;13.99;;
54328;SDS011;40710;51.120;13.136;2023-02-15T07:46:05;14.56;;;14.25;;
54328;SDS011;40710;51.120;13.136;2023-02-15T07:48:33;14.49;;;14.19;;
54328;SDS011;40710;51.120;13.136;2023-02-15T07:50:59;13.47;;;13.32;;
54328;SDS011;40710;51.120;13.136;2023-02-15T07:53:24;12.95;;;12.79;;
54328;SDS011;40710;51.120;13.136;2023-02-15T07:55:48;13.24;;;13.06;;
54328;SDS011;40710;51.120;13.136;2023-02-15T07:58:13;13.96;;;13.72;;
54328;SDS011;40710;51.120;13.136;2023-02-15T08:00:37;14.00;;;13.82;;
54328;SDS011;40710;51.120;13.136;2023-02-15T08:03:22;13.58;;;13.51;;
54328;SDS011;40710;51.120;13.136;2023-02-15T08:05:50;14.11;;;13.83;;
54328;SDS011;40710;51.120;13.136;2023-02-15T08:08:15;13.25;;;13.01;;
54328;SDS011;40710;51.120;13.136;2023-02-15T08:14:00;12.30;;;12.09;;
54328;SDS011;40710;51.120;13.136;2023-02-15T08:16:52;12.92;;;12.54;;
54328;SDS011;40710;51.120;13.136;2023-02-15T08:19:22;12.44;;;12.11;;
54328;SDS011;40710;51.120;13.136;2023-02-15T08:21:48;13.49;;;13.19;;
54328;SDS011;40710;51.120;13.136;2023-02-15T08:24:16;14.38;;;14.13;;
54328;SDS011;40710;51.120;13.136;2023-02-15T08:26:42;14.55;;;14.25;;
54328;SDS011;40710;51.120;13.136;2023-02-15T08:29:09;14.84;;;14.52;;
54328;SDS011;40710;51.120;13.136;2023-02-15T08:31:34;13.64;;;13.54;;
54328;SDS011;40710;51.120;13.136;2023-02-15T08:34:01;13.49;;;13.20;;
54328;SDS011;40710;51.120;13.136;2023-02-15T08:36:26;12.13;;;11.86;;
54328;SDS011;40710;51.120;13.136;2023-02-15T08:38:53;12.78;;;12.57;;
54328;SDS011;40710;51.120;13.136;2023-02-15T08:41:20;12.77;;;12.51;;
54328;SDS011;40710;51.120;13.136;2023-02-15T08:43:48;13.27;;;13.13;;
54328;SDS011;40710;51.120;13.136;2023-02-15T08:46:15;13.23;;;13.13;;
54328;SDS011;40710;51.120;13.136;2023-02-15T08:48:41;14.58;;;14.32;;
54328;SDS011;40710;51.120;13.136;2023-02-15T08:51:13;13.27;;;13.05;;
54328;SDS011;40710;51.120;13.136;2023-02-15T08:53:41;12.03;;;11.87;;
54328;SDS011;40710;51.120;13.136;2023-02-15T08:56:08;11.43;;;11.23;;
54328;SDS011;40710;51.120;13.136;2023-02-15T08:58:34;11.22;;;11.04;;
54328;SDS011;40710;51.120;13.136;2023-02-15T09:00:59;11.02;;;10.91;;
54328;SDS011;40710;51.120;13.136;2023-02-15T09:03:23;10.43;;;10.26;;
54328;SDS011;40710;51.120;13.136;2023-02-15T09:05:48;11.17;;;10.97;;
54328;SDS011;40710;51.120;13.136;2023-02-15T09:08:13;10.81;;;10.64;;
54328;SDS011;40710;51.120;13.136;2023-02-15T09:10:38;11.22;;;11.09;;
54328;SDS011;40710;51.120;13.136;2023-02-15T09:13:02;12.38;;;12.15;;
54328;SDS011;40710;51.120;13.136;2023-02-15T09:15:27;12.39;;;12.12;;
54328;SDS011;40710;51.120;13.136;2023-02-15T09:17:51;12.50;;;12.23;;
54328;SDS011;40710;51.120;13.136;2023-02-15T09:20:17;11.63;;;11.37;;
54328;SDS011;40710;51.120;13.136;2023-02-15T09:22:41;10.71;;;10.49;;
54328;SDS011;40710;51.120;13.136;2023-02-15T09:25:06;9.91;;;9.70;;
54328;SDS011;40710;51.120;13.136;2023-02-15T09:27:31;10.12;;;9.93;;
54328;SDS011;40710;51.120;13.136;2023-02-15T09:29:55;9.66;;;9.58;;
54328;SDS011;40710;51.120;13.136;2023-02-15T09:32:20;9.54;;;9.49;;
54328;SDS011;40710;51.120;13.136;2023-02-15T09:34:46;9.56;;;9.50;;
54328;SDS011;40710;51.120;13.136;2023-02-15T09:37:10;9.35;;;9.18;;
54328;SDS011;40710;51.120;13.136;2023-02-15T09:39:35;9.27;;;9.08;;
54328;SDS011;40710;51.120;13.136;2023-02-15T09:47:59;9.18;;;8.94;;
54328;SDS011;40710;51.120;13.136;2023-02-15T09:50:51;9.24;;;9.00;;
54328;SDS011;40710;51.120;13.136;2023-02-15T09:58:59;8.18;;;8.06;;
54328;SDS011;40710;51.120;13.136;2023-02-15T10:01:40;9.28;;;9.24;;
54328;SDS011;40710;51.120;13.136;2023-02-15T10:04:47;10.10;;;9.93;;
54328;SDS011;40710;51.120;13.136;2023-02-15T10:10:02;9.62;;;9.60;;
54328;SDS011;40710;51.120;13.136;2023-02-15T10:13:05;10.21;;;10.12;;
54328;SDS011;40710;51.120;13.136;2023-02-15T10:16:06;9.66;;;9.65;;
54328;SDS011;40710;51.120;13.136;2023-02-15T10:18:49;10.03;;;9.98;;
54328;SDS011;40710;51.120;13.136;2023-02-15T10:22:05;10.73;;;10.53;;
54328;SDS011;40710;51.120;13.136;2023-02-15T10:24:51;10.65;;;10.57;;
54328;SDS011;40710;51.120;13.136;2023-02-15T10:27:36;10.26;;;10.06;;
54328;SDS011;40710;51.120;13.136;2023-02-15T10:30:11;9.78;;;9.59;;
54328;SDS011;40710;51.120;13.136;2023-02-15T10:35:34;10.08;;;10.08;;
54328;SDS011;40710;51.120;13.136;2023-02-15T10:38:37;10.14;;;10.11;;
54328;SDS011;40710;51.120;13.136;2023-02-15T10:44:31;9.19;;;8.97;;
54328;SDS011;40710;51.120;13.136;2023-02-15T10:50:16;9.01;;;8.78;;
54328;SDS011;40710;51.120;13.136;2023-02-15T10:52:59;8.96;;;8.80;;
54328;SDS011;40710;51.120;13.136;2023-02-15T10:55:55;9.17;;;9.01;;
54328;SDS011;40710;51.120;13.136;2023-02-15T11:07:26;8.07;;;8.06;;
54328;SDS011;40710;51.120;13.136;2023-02-15T11:10:01;7.96;;;7.96;;
54328;SDS011;40710;51.120;13.136;2023-02-15T11:12:46;10.74;;;10.62;;
54328;SDS011;40710;51.120;13.136;2023-02-15T11:18:00;9.81;;;9.81;;
54328;SDS011;40710;51.120;13.136;2023-02-15T11:20:29;6.16;;;6.13;;
54328;SDS011;40710;51.120;13.136;2023-02-15T11:22:59;4.63;;;4.56;;
54328;SDS011;40710;51.120;13.136;2023-02-15T11:25:28;4.74;;;4.71;;
54328;SDS011;40710;51.120;13.136;2023-02-15T11:27:56;4.29;;;4.29;;
54328;SDS011;40710;51.120;13.136;2023-02-15T11:30:25;3.86;;;3.85;;
54328;SDS011;40710;51.120;13.136;2023-02-15T11:32:57;4.32;;;4.26;;
54328;SDS011;40710;51.120;13.136;2023-02-15T11:35:42;4.57;;;4.53;;
54328;SDS011;40710;51.120;13.136;2023-02-15T11:38:17;6.82;;;6.77;;
54328;SDS011;40710;51.120;13.136;2023-02-15T11:40:49;5.00;;;4.98;;
54328;SDS011;40710;51.120;13.136;2023-02-15T11:43:23;3.89;;;3.89;;
54328;SDS011;40710;51.120;13.136;2023-02-15T11:45:58;4.21;;;4.17;;
54328;SDS011;40710;51.120;13.136;2023-02-15T11:48:22;4.36;;;4.31;;
54328;SDS011;40710;51.120;13.136;2023-02-15T11:50:47;4.87;;;4.80;;
54328;SDS011;40710;51.120;13.136;2023-02-15T11:53:13;12.07;;;11.91;;
54328;SDS011;40710;51.120;13.136;2023-02-15T11:55:42;10.09;;;9.79;;
54328;SDS011;40710;51.120;13.136;2023-02-15T11:58:27;14.40;;;13.93;;
54328;SDS011;40710;51.120;13.136;2023-02-15T12:01:04;4.59;;;4.51;;
54328;SDS011;40710;51.120;13.136;2023-02-15T12:03:44;4.04;;;3.97;;
54328;SDS011;40710;51.120;13.136;2023-02-15T12:06:14;4.26;;;4.24;;
54328;SDS011;40710;51.120;13.136;2023-02-15T12:08:50;4.48;;;4.48;;
54328;SDS011;40710;51.120;13.136;2023-02-15T12:11:21;4.27;;;4.27;;
54328;SDS011;40710;51.120;13.136;2023-02-15T12:16:19;4.92;;;4.91;;
54328;SDS011;40710;51.120;13.136;2023-02-15T12:18:44;4.07;;;4.05;;
54328;SDS011;40710;51.120;13.136;2023-02-15T12:21:12;4.21;;;4.15;;
54328;SDS011;40710;51.120;13.136;2023-02-15T12:23:42;4.02;;;3.94;;
54328;SDS011;40710;51.120;13.136;2023-02-15T12:26:12;4.10;;;4.01;;
54328;SDS011;40710;51.120;13.136;2023-02-15T12:28:41;4.04;;;3.98;;
54328;SDS011;40710;51.120;13.136;2023-02-15T12:31:32;4.22;;;4.19;;
54328;SDS011;40710;51.120;13.136;2023-02-15T12:34:20;3.80;;;3.78;;
54328;SDS011;40710;51.120;13.136;2023-02-15T12:36:50;4.74;;;4.69;;
54328;SDS011;40710;51.120;13.136;2023-02-15T12:39:22;4.71;;;4.65;;
54328;SDS011;40710;51.120;13.136;2023-02-15T12:44:19;4.21;;;4.17;;
54328;SDS011;40710;51.120;13.136;2023-02-15T12:46:58;3.72;;;3.71;;
54328;SDS011;40710;51.120;13.136;2023-02-15T12:49:28;4.00;;;3.95;;
54328;SDS011;40710;51.120;13.136;2023-02-15T12:52:10;6.63;;;6.60;;
54328;SDS011;40710;51.120;13.136;2023-02-15T12:54:49;14.77;;;14.43;;
54328;SDS011;40710;51.120;13.136;2023-02-15T12:57:25;5.26;;;5.18;;
54328;SDS011;40710;51.120;13.136;2023-02-15T13:02:52;3.94;;;3.92;;
54328;SDS011;40710;51.120;13.136;2023-02-15T13:07:56;3.11;;;3.09;;
54328;SDS011;40710;51.120;13.136;2023-02-15T13:12:59;2.38;;;2.37;;
54328;SDS011;40710;51.120;13.136;2023-02-15T13:17:57;2.48;;;2.48;;
54328;SDS011;40710;51.120;13.136;2023-02-15T13:20:24;2.25;;;2.25;;
54328;SDS011;40710;51.120;13.136;2023-02-15T13:22:52;2.02;;;2.01;;
54328;SDS011;40710;51.120;13.136;2023-02-15T13:25:24;2.36;;;2.34;;
54328;SDS011;40710;51.120;13.136;2023-02-15T13:27:54;2.39;;;2.36;;
54328;SDS011;40710;51.120;13.136;2023-02-15T13:30:26;2.48;;;2.46;;
54328;SDS011;40710;51.120;13.136;2023-02-15T13:33:03;2.68;;;2.65;;
54328;SDS011;40710;51.120;13.136;2023-02-15T13:35:48;2.39;;;2.38;;
54328;SDS011;40710;51.120;13.136;2023-02-15T13:38:41;2.16;;;2.14;;
54328;SDS011;40710;51.120;13.136;2023-02-15T13:41:14;2.35;;;2.34;;
54328;SDS011;40710;51.120;13.136;2023-02-15T13:47:12;2.28;;;2.28;;
54328;SDS011;40710;51.120;13.136;2023-02-15T13:49:53;2.14;;;2.14;;
54328;SDS011;40710;51.120;13.136;2023-02-15T13:52:39;6.04;;;5.99;;
54328;SDS011;40710;51.120;13.136;2023-02-15T13:55:26;7.00;;;6.75;;
54328;SDS011;40710;51.120;13.136;2023-02-15T14:10:02;1.92;;;1.92;;
54328;SDS011;40710;51.120;13.136;2023-02-15T14:15:44;2.33;;;2.33;;
54328;SDS011;40710;51.120;13.136;2023-02-15T14:18:25;2.04;;;2.04;;
54328;SDS011;40710;51.120;13.136;2023-02-15T14:21:02;1.81;;;1.80;;
54328;SDS011;40710;51.120;13.136;2023-02-15T14:26:20;2.21;;;2.18;;
54328;SDS011;40710;51.120;13.136;2023-02-15T14:31:53;2.40;;;2.40;;
54328;SDS011;40710;51.120;13.136;2023-02-15T14:34:24;2.74;;;2.73;;
54328;SDS011;40710;51.120;13.136;2023-02-15T14:37:05;2.74;;;2.72;;
54328;SDS011;40710;51.120;13.136;2023-02-15T14:45:05;2.69;;;2.66;;
54328;SDS011;40710;51.120;13.136;2023-02-15T14:47:55;2.65;;;2.60;;
54328;SDS011;40710;51.120;13.136;2023-02-15T14:50:46;2.67;;;2.60;;
54328;SDS011;40710;51.120;13.136;2023-02-15T14:55:39;2.60;;;2.56;;
54328;SDS011;40710;51.120;13.136;2023-02-15T14:58:09;2.55;;;2.52;;
54328;SDS011;40710;51.120;13.136;2023-02-15T15:00:37;2.32;;;2.32;;
54328;SDS011;40710;51.120;13.136;2023-02-15T15:03:09;2.28;;;2.27;;
54328;SDS011;40710;51.120;13.136;2023-02-15T15:06:02;2.83;;;2.82;;
54328;SDS011;40710;51.120;13.136;2023-02-15T15:08:31;3.54;;;3.54;;
54328;SDS011;40710;51.120;13.136;2023-02-15T15:16:56;2.68;;;2.67;;
54328;SDS011;40710;51.120;13.136;2023-02-15T15:22:15;3.10;;;3.04;;
54328;SDS011;40710;51.120;13.136;2023-02-15T15:30:01;3.43;;;3.39;;
54328;SDS011;40710;51.120;13.136;2023-02-15T15:32:48;14.64;;;14.13;;
54328;SDS011;40710;51.120;13.136;2023-02-15T15:48:33;5.60;;;5.56;;
54328;SDS011;40710;51.120;13.136;2023-02-15T15:51:12;4.08;;;4.02;;
54328;SDS011;40710;51.120;13.136;2023-02-15T15:53:57;3.55;;;3.51;;
54328;SDS011;40710;51.120;13.136;2023-02-15T15:56:23;3.77;;;3.71;;
54328;SDS011;40710;51.120;13.136;2023-02-15T15:58:59;3.84;;;3.76;;
54328;SDS011;40710;51.120;13.136;2023-02-15T16:01:34;3.94;;;3.85;;
54328;SDS011;40710;51.120;13.136;2023-02-15T16:04:05;4.37;;;4.28;;
54328;SDS011;40710;51.120;13.136;2023-02-15T16:06:36;4.80;;;4.66;;
54328;SDS011;40710;51.120;13.136;2023-02-15T16:09:35;4.65;;;4.55;;
54328;SDS011;40710;51.120;13.136;2023-02-15T16:11:54;4.68;;;4.54;;
54328;SDS011;40710;51.120;13.136;2023-02-15T16:14:26;4.26;;;4.19;;
54328;SDS011;40710;51.120;13.136;2023-02-15T16:16:59;5.61;;;5.50;;
54328;SDS011;40710;51.120;13.136;2023-02-15T16:19:28;6.08;;;5.94;;
54328;SDS011;40710;51.120;13.136;2023-02-15T16:21:59;5.13;;;5.00;;
54328;SDS011;40710;51.120;13.136;2023-02-15T16:27:22;8.09;;;7.99;;
54328;SDS011;40710;51.120;13.136;2023-02-15T16:29:58;10.64;;;10.51;;
54328;SDS011;40710;51.120;13.136;2023-02-15T16:32:23;9.16;;;9.02;;
54328;SDS011;40710;51.120;13.136;2023-02-15T16:34:57;7.82;;;7.71;;
54328;SDS011;40710;51.120;13.136;2023-02-15T16:37:25;7.12;;;7.06;;
54328;SDS011;40710;51.120;13.136;2023-02-15T16:39:51;7.46;;;7.40;;
54328;SDS011;40710;51.120;13.136;2023-02-15T16:42:16;6.78;;;6.71;;
54328;SDS011;40710;51.120;13.136;2023-02-15T16:44:42;8.55;;;8.43;;
54328;SDS011;40710;51.120;13.136;2023-02-15T16:47:16;9.24;;;9.09;;
54328;SDS011;40710;51.120;13.136;2023-02-15T16:49:46;12.70;;;12.43;;